createdAt,value
2022-11-03T00:00:17.959Z,49.47
2022-11-03T00:03:03.860Z,49.47
2022-11-03T00:05:53.771Z,49.54
2022-11-03T00:08:25.986Z,49.74
2022-11-03T00:11:05.253Z,49.79
2022-11-03T00:13:39.110Z,49.86
2022-11-03T00:16:12.828Z,49.87
2022-11-03T00:18:45.222Z,50.01
2022-11-03T00:21:17.487Z,50.02
2022-11-03T00:23:49.816Z,50.13
2022-11-03T00:26:23.818Z,50.09
2022-11-03T00:28:58.155Z,50.16
2022-11-03T00:31:32.350Z,50.34
2022-11-03T00:34:06.068Z,50.32
2022-11-03T00:36:39.872Z,50.36
2022-11-03T00:39:12.979Z,50.40
2022-11-03T00:42:19.845Z,50.41
2022-11-03T00:44:52.107Z,50.51
2022-11-03T00:47:24.458Z,50.56
2022-11-03T00:49:56.833Z,50.63
2022-11-03T00:52:29.043Z,50.59
2022-11-03T00:55:01.247Z,50.64
2022-11-03T00:57:33.645Z,50.68
2022-11-03T01:03:30.946Z,50.70
2022-11-03T01:06:21.177Z,50.74
2022-11-03T01:08:53.828Z,50.77
2022-11-03T01:11:45.097Z,50.74
2022-11-03T01:14:18.606Z,50.82
2022-11-03T01:16:50.922Z,50.88
2022-11-03T01:19:23.912Z,50.95
2022-11-03T01:21:56.255Z,50.98
2022-11-03T01:24:28.586Z,51.13
2022-11-03T01:27:01.007Z,51.13
2022-11-03T01:29:33.284Z,51.25
2022-11-03T01:32:05.748Z,51.23
2022-11-03T01:34:38.179Z,51.37
2022-11-03T01:37:10.580Z,51.42
2022-11-03T01:39:42.779Z,51.38
2022-11-03T01:42:15.796Z,51.40
2022-11-03T01:44:49.856Z,51.56
2022-11-03T01:47:29.483Z,51.54
2022-11-03T01:50:04.757Z,51.63
2022-11-03T01:52:42.134Z,51.69
2022-11-03T01:55:18.089Z,51.80
2022-11-03T01:57:56.714Z,51.75
2022-11-03T02:00:29.017Z,51.77
2022-11-03T02:03:02.281Z,51.87
2022-11-03T02:05:34.498Z,52.02
2022-11-03T02:08:10.608Z,52.00
2022-11-03T02:10:43.599Z,52.08
2022-11-03T02:13:20.317Z,52.08
2022-11-03T02:15:54.897Z,52.17
2022-11-03T02:18:31.163Z,52.29
2022-11-03T02:21:13.659Z,52.27
2022-11-03T02:23:53.926Z,52.41
2022-11-03T02:26:26.507Z,52.40
2022-11-03T02:28:58.976Z,52.45
2022-11-03T02:31:37.904Z,52.58
2022-11-03T02:34:14.062Z,52.68
2022-11-03T02:36:53.286Z,52.69
2022-11-03T02:39:31.482Z,52.78
2022-11-03T02:42:06.130Z,52.83
2022-11-03T02:44:40.450Z,52.89
2022-11-03T02:47:14.975Z,53.02
2022-11-03T02:49:52.861Z,52.96
2022-11-03T02:52:40.034Z,53.03
2022-11-03T02:55:18.069Z,53.08
2022-11-03T02:57:57.967Z,53.25
2022-11-03T03:00:32.963Z,53.24
2022-11-03T03:03:10.254Z,53.21
2022-11-03T03:05:44.167Z,53.36
2022-11-03T03:08:17.775Z,53.36
2022-11-03T03:10:51.978Z,53.39
2022-11-03T03:13:26.002Z,53.40
2022-11-03T03:16:13.022Z,53.41
2022-11-03T03:18:52.358Z,53.60
2022-11-03T03:21:28.317Z,53.66
2022-11-03T03:24:04.269Z,53.66
2022-11-03T03:26:41.537Z,53.73
2022-11-03T03:29:21.080Z,53.71
2022-11-03T03:31:58.958Z,53.79
2022-11-03T03:34:35.166Z,53.87
2022-11-03T03:37:12.242Z,53.90
2022-11-03T03:39:49.233Z,53.98
2022-11-03T03:42:24.466Z,53.90
2022-11-03T03:44:58.383Z,53.99
2022-11-03T03:47:34.020Z,53.98
2022-11-03T03:50:07.357Z,54.01
2022-11-03T03:52:40.513Z,54.02
2022-11-03T03:55:18.858Z,54.17
2022-11-03T03:57:51.965Z,54.28
2022-11-03T04:00:25.862Z,54.31
2022-11-03T04:02:59.530Z,54.24
2022-11-03T04:05:31.728Z,54.50
2022-11-03T04:08:04.151Z,54.41
2022-11-03T04:10:36.501Z,54.48
2022-11-03T04:13:29.589Z,54.48
2022-11-03T04:16:21.908Z,54.57
2022-11-03T04:19:13.601Z,54.74
2022-11-03T04:22:08.469Z,54.62
2022-11-03T04:24:40.745Z,54.83
2022-11-03T04:27:29.290Z,54.80
2022-11-03T04:30:14.681Z,54.77
2022-11-03T04:32:48.978Z,54.88
2022-11-03T04:35:24.841Z,54.87
2022-11-03T04:38:03.408Z,54.88
2022-11-03T04:40:35.902Z,54.86
2022-11-03T04:43:13.933Z,54.92
2022-11-03T04:45:48.862Z,54.98
2022-11-03T04:48:22.998Z,55.03
2022-11-03T04:50:59.658Z,55.10
2022-11-03T04:53:34.375Z,54.98
2022-11-03T04:56:16.070Z,55.08
2022-11-03T04:58:48.875Z,55.01
2022-11-03T05:01:25.296Z,55.07
2022-11-03T05:03:58.064Z,55.11
2022-11-03T05:06:31.760Z,55.08
2022-11-03T05:09:12.690Z,55.08
2022-11-03T05:11:46.669Z,55.04
2022-11-03T05:14:22.109Z,55.00
2022-11-03T05:16:56.571Z,55.04
2022-11-03T05:19:34.051Z,54.97
2022-11-03T05:22:07.348Z,55.04
2022-11-03T05:24:39.630Z,55.03
2022-11-03T05:27:17.826Z,55.12
2022-11-03T05:29:53.957Z,55.03
2022-11-03T05:32:32.496Z,55.11
2022-11-03T05:35:04.830Z,55.07
2022-11-03T05:37:37.759Z,55.15
2022-11-03T05:40:22.110Z,55.24
2022-11-03T05:42:59.136Z,55.22
2022-11-03T05:45:35.149Z,55.22
2022-11-03T05:48:17.449Z,55.11
2022-11-03T05:50:49.841Z,55.24
2022-11-03T05:53:33.620Z,55.19
2022-11-03T05:56:08.506Z,55.15
2022-11-03T05:58:43.687Z,55.15
2022-11-03T06:01:21.183Z,55.24
2022-11-03T06:03:53.713Z,55.32
2022-11-03T06:06:32.417Z,55.40
2022-11-03T06:09:13.828Z,55.45
2022-11-03T06:11:47.206Z,55.43
2022-11-03T06:14:24.465Z,55.27
2022-11-03T06:16:59.389Z,55.28
2022-11-03T06:19:36.403Z,55.34
2022-11-03T06:22:16.661Z,55.35
2022-11-03T06:24:49.286Z,55.19
2022-11-03T06:27:24.289Z,55.21
2022-11-03T06:30:00.947Z,55.09
2022-11-03T06:32:34.549Z,55.02
2022-11-03T06:35:11.381Z,54.88
2022-11-03T06:37:45.040Z,54.86
2022-11-03T06:40:37.347Z,54.79
2022-11-03T06:43:22.751Z,54.68
2022-11-03T06:45:58.490Z,54.65
2022-11-03T06:48:30.084Z,54.74
2022-11-03T06:51:02.625Z,54.69
2022-11-03T06:53:35.833Z,54.47
2022-11-03T06:56:13.918Z,54.46
2022-11-03T06:58:49.448Z,54.58
2022-11-03T07:01:26.060Z,54.35
2022-11-03T07:04:03.795Z,54.35
2022-11-03T07:06:38.725Z,54.13
2022-11-03T07:09:18.313Z,53.98
2022-11-03T07:11:53.261Z,53.89
2022-11-03T07:14:27.984Z,53.91
2022-11-03T07:17:03.846Z,53.95
2022-11-03T07:19:39.598Z,53.92
2022-11-03T07:22:17.092Z,53.91
2022-11-03T07:24:54.115Z,53.98
2022-11-03T07:27:31.038Z,53.94
2022-11-03T07:30:15.819Z,53.93
2022-11-03T07:32:48.975Z,53.75
2022-11-03T07:36:00.509Z,53.90
2022-11-03T07:38:29.693Z,53.69
2022-11-03T07:41:02.785Z,53.68
2022-11-03T07:43:38.455Z,53.32
2022-11-03T07:46:18.613Z,53.18
2022-11-03T07:48:53.134Z,53.01
2022-11-03T07:51:29.911Z,53.04
2022-11-03T07:54:10.950Z,53.10
2022-11-03T07:56:47.808Z,52.80
2022-11-03T08:02:01.690Z,52.85
2022-11-03T08:04:35.786Z,52.55
2022-11-03T08:07:08.138Z,52.38
2022-11-03T08:09:40.342Z,52.45
2022-11-03T08:12:12.610Z,52.48
2022-11-03T08:14:44.827Z,52.51
2022-11-03T08:17:17.519Z,52.32
2022-11-03T08:19:49.728Z,52.07
2022-11-03T08:22:23.386Z,52.08
2022-11-03T08:24:55.935Z,51.89
2022-11-03T08:27:28.297Z,52.10
2022-11-03T08:30:00.502Z,51.90
2022-11-03T08:32:32.761Z,51.83
2022-11-03T08:35:05.218Z,51.45
2022-11-03T08:37:37.400Z,51.50
2022-11-03T08:40:12.067Z,51.46
2022-11-03T08:42:44.307Z,51.47
2022-11-03T08:45:17.063Z,51.18
2022-11-03T08:47:50.030Z,51.24
2022-11-03T08:50:22.341Z,51.16
2022-11-03T08:52:54.634Z,50.58
2022-11-03T08:55:27.023Z,50.85
2022-11-03T08:57:59.315Z,50.54
2022-11-03T09:00:31.689Z,50.60
2022-11-03T09:03:03.984Z,50.77
2022-11-03T09:05:36.746Z,50.32
2022-11-03T09:11:01.868Z,49.93
2022-11-03T09:13:34.071Z,50.14
2022-11-03T09:16:07.255Z,50.11
2022-11-03T09:18:39.652Z,49.64
2022-11-03T09:21:11.931Z,49.85
2022-11-03T09:23:44.098Z,49.85
2022-11-03T09:26:16.378Z,49.64
2022-11-03T09:28:49.705Z,49.43
2022-11-03T09:31:23.697Z,49.13
2022-11-03T09:33:55.981Z,49.26
2022-11-03T09:36:28.227Z,49.26
2022-11-03T09:39:00.419Z,48.99
2022-11-03T09:41:55.873Z,48.89
2022-11-03T09:44:26.232Z,48.74
2022-11-03T09:46:58.717Z,48.20
2022-11-03T09:49:32.717Z,48.24
2022-11-03T09:52:06.732Z,48.02
2022-11-03T09:54:38.945Z,47.90
2022-11-03T09:57:16.477Z,47.94
2022-11-03T09:59:51.115Z,47.80
2022-11-03T10:02:29.542Z,47.69
2022-11-03T10:05:08.262Z,47.56
2022-11-03T10:07:43.802Z,47.32
2022-11-03T10:10:21.631Z,47.10
2022-11-03T10:12:55.325Z,47.05
2022-11-03T10:15:29.118Z,47.05
2022-11-03T10:18:01.491Z,47.07
2022-11-03T10:20:34.196Z,47.04
2022-11-03T10:23:06.734Z,46.93
2022-11-03T10:25:42.319Z,46.82
2022-11-03T10:28:23.356Z,46.48
2022-11-03T10:31:11.188Z,46.92
2022-11-03T10:33:53.108Z,46.51
2022-11-03T10:36:28.089Z,46.36
2022-11-03T10:39:01.966Z,46.48
2022-11-03T10:41:34.933Z,46.16
2022-11-03T10:44:19.483Z,46.13
2022-11-03T10:47:01.499Z,45.97
2022-11-03T10:49:39.301Z,45.58
2022-11-03T10:52:21.047Z,45.56
2022-11-03T10:54:56.820Z,45.82
2022-11-03T10:57:27.993Z,45.61
2022-11-03T11:00:00.250Z,45.48
2022-11-03T11:02:36.657Z,45.35
2022-11-03T11:05:17.332Z,45.37
2022-11-03T11:07:51.881Z,45.42
2022-11-03T11:10:26.577Z,45.35
2022-11-03T11:13:12.737Z,45.20
2022-11-03T11:15:46.848Z,45.19
2022-11-03T11:19:11.621Z,44.91
2022-11-03T11:22:04.633Z,44.78
2022-11-03T11:25:04.009Z,44.77
2022-11-03T11:27:58.787Z,44.53
2022-11-03T11:31:05.077Z,44.86
2022-11-03T11:33:37.303Z,44.82
2022-11-03T11:36:25.244Z,44.46
2022-11-03T11:38:59.514Z,44.75
2022-11-03T11:42:06.569Z,44.70
2022-11-03T11:45:04.504Z,44.45
2022-11-03T11:47:47.445Z,44.36
2022-11-03T11:50:40.931Z,44.33
2022-11-03T11:53:20.760Z,44.39
2022-11-03T11:55:56.403Z,43.94
2022-11-03T11:58:36.729Z,43.88
2022-11-03T12:01:24.033Z,44.08
2022-11-03T12:03:58.569Z,44.09
2022-11-03T12:06:38.930Z,43.83
2022-11-03T12:09:17.503Z,43.91
2022-11-03T12:11:55.434Z,43.66
2022-11-03T12:14:34.386Z,43.82
2022-11-03T12:17:35.722Z,43.72
2022-11-03T12:20:47.596Z,43.65
2022-11-03T12:23:37.362Z,43.98
2022-11-03T12:26:18.248Z,43.93
2022-11-03T12:28:50.483Z,43.80
2022-11-03T12:31:22.823Z,43.95
2022-11-03T12:33:55.476Z,43.67
2022-11-03T12:36:27.894Z,43.58
2022-11-03T12:39:00.111Z,43.66
2022-11-03T12:41:32.517Z,43.91
2022-11-03T12:44:04.902Z,43.98
2022-11-03T12:46:37.302Z,43.46
2022-11-03T12:49:09.656Z,43.62
2022-11-03T12:51:42.144Z,43.53
2022-11-03T12:54:14.626Z,43.54
2022-11-03T12:56:46.974Z,43.50
2022-11-03T12:59:19.217Z,43.52
2022-11-03T13:01:51.623Z,43.32
2022-11-03T13:04:24.024Z,43.64
2022-11-03T13:06:56.826Z,43.49
2022-11-03T13:09:29.029Z,43.56
2022-11-03T13:12:19.015Z,43.72
2022-11-03T13:14:51.349Z,43.62
2022-11-03T13:17:23.547Z,43.54
2022-11-03T13:19:56.029Z,43.62
2022-11-03T13:22:29.083Z,43.74
2022-11-03T13:25:01.430Z,43.54
2022-11-03T13:27:33.637Z,43.44
2022-11-03T13:30:07.469Z,43.56
2022-11-03T13:32:40.148Z,43.64
2022-11-03T13:35:14.470Z,43.54
2022-11-03T13:37:47.135Z,43.63
2022-11-03T13:40:42.728Z,43.48
2022-11-03T13:43:11.973Z,43.51
2022-11-03T13:45:44.927Z,43.54
2022-11-03T13:51:12.323Z,43.48
2022-11-03T13:59:29.338Z,43.49
2022-11-03T14:04:53.806Z,43.51
2022-11-03T14:07:25.984Z,43.37
2022-11-03T14:10:00.845Z,43.53
2022-11-03T14:12:36.999Z,43.58
2022-11-03T14:15:12.184Z,43.55
2022-11-03T14:17:44.416Z,43.47
2022-11-03T14:20:16.865Z,43.65
2022-11-03T14:22:49.063Z,43.52
2022-11-03T14:25:21.412Z,43.50
2022-11-03T14:27:53.701Z,43.47
2022-11-03T14:30:25.929Z,43.61
2022-11-03T14:32:59.730Z,43.64
2022-11-03T14:35:32.190Z,43.42
2022-11-03T14:38:04.357Z,43.67
2022-11-03T14:40:54.008Z,43.76
2022-11-03T14:43:28.808Z,43.69
2022-11-03T14:46:05.517Z,43.65
2022-11-03T14:48:37.772Z,43.68
2022-11-03T14:51:10.092Z,43.85
2022-11-03T14:53:42.724Z,43.84
2022-11-03T14:56:14.983Z,43.82
2022-11-03T14:58:48.510Z,43.74
2022-11-03T15:01:22.120Z,43.84
2022-11-03T15:03:54.518Z,43.85
2022-11-03T15:06:26.780Z,44.08
2022-11-03T15:09:00.254Z,44.10
2022-11-03T15:11:32.945Z,43.96
2022-11-03T15:14:05.762Z,44.05
2022-11-03T15:16:38.592Z,44.01
2022-11-03T15:19:13.492Z,44.03
2022-11-03T15:21:45.666Z,44.04
2022-11-03T15:27:15.168Z,44.13
2022-11-03T15:29:49.548Z,44.06
2022-11-03T15:32:22.134Z,44.09
2022-11-03T15:34:55.925Z,44.23
2022-11-03T15:37:28.759Z,44.11
2022-11-03T15:40:02.559Z,44.28
2022-11-03T15:42:35.107Z,44.32
2022-11-03T15:45:13.105Z,44.13
2022-11-03T15:47:46.020Z,44.31
2022-11-03T15:50:18.469Z,44.22
2022-11-03T15:52:50.752Z,44.24
2022-11-03T15:55:23.960Z,44.40
2022-11-03T15:57:56.647Z,44.30
2022-11-03T16:00:29.980Z,44.37
2022-11-03T16:03:02.399Z,44.48
2022-11-03T16:05:34.706Z,44.37
2022-11-03T16:08:07.306Z,44.42
2022-11-03T16:10:44.149Z,44.48
2022-11-03T16:13:20.197Z,44.54
2022-11-03T16:15:53.298Z,44.40
2022-11-03T16:18:25.800Z,44.51
2022-11-03T16:20:58.688Z,44.51
2022-11-03T16:23:30.822Z,44.61
2022-11-03T16:26:05.637Z,44.54
2022-11-03T16:28:37.787Z,44.63
2022-11-03T16:31:10.098Z,44.53
2022-11-03T16:33:42.441Z,44.63
2022-11-03T16:36:14.680Z,44.57
2022-11-03T16:38:47.067Z,44.62
2022-11-03T16:41:19.376Z,44.73
2022-11-03T16:43:51.553Z,44.73
2022-11-03T16:46:23.886Z,44.87
2022-11-03T16:48:56.570Z,44.94
2022-11-03T16:51:29.240Z,44.99
2022-11-03T16:54:01.548Z,45.10
2022-11-03T16:56:33.771Z,45.15
2022-11-03T16:59:05.938Z,45.33
2022-11-03T17:01:39.214Z,45.18
2022-11-03T17:04:11.549Z,45.27
2022-11-03T17:06:43.689Z,45.39
2022-11-03T17:09:16.057Z,45.45
2022-11-03T17:11:48.188Z,45.50
2022-11-03T17:14:20.334Z,45.55
2022-11-03T17:16:52.448Z,45.66
2022-11-03T17:19:24.719Z,45.74
2022-11-03T17:21:58.451Z,45.66
2022-11-03T17:24:30.743Z,45.78
2022-11-03T17:27:06.429Z,45.69
2022-11-03T17:29:38.630Z,45.73
2022-11-03T17:32:15.317Z,45.94
2022-11-03T17:34:47.556Z,46.00
2022-11-03T17:37:19.795Z,45.94
2022-11-03T17:39:52.294Z,46.02
2022-11-03T17:42:26.293Z,46.30
2022-11-03T17:44:59.822Z,46.33
2022-11-03T17:47:32.126Z,46.46
2022-11-03T17:50:04.556Z,46.52
2022-11-03T17:52:37.456Z,46.62
2022-11-03T17:55:22.798Z,46.61
2022-11-03T17:57:56.047Z,46.73
2022-11-03T18:00:29.302Z,46.90
2022-11-03T18:03:01.660Z,46.87
2022-11-03T18:05:34.815Z,46.86
2022-11-03T18:08:10.682Z,46.90
2022-11-03T18:10:46.745Z,47.02
2022-11-03T18:13:22.116Z,47.10
2022-11-03T18:15:58.536Z,47.26
2022-11-03T18:18:34.421Z,47.29
2022-11-03T18:21:07.524Z,47.33
2022-11-03T18:23:39.721Z,47.49
2022-11-03T18:26:17.558Z,47.51
2022-11-03T18:28:51.169Z,47.56
2022-11-03T18:31:25.951Z,47.68
2022-11-03T18:33:59.335Z,47.66
2022-11-03T18:36:33.125Z,47.75
2022-11-03T18:39:05.813Z,47.79
2022-11-03T18:41:39.781Z,47.91
2022-11-03T18:44:19.166Z,47.84
2022-11-03T18:46:53.082Z,47.95
2022-11-03T18:49:27.563Z,47.93
2022-11-03T18:52:04.167Z,48.01
2022-11-03T18:54:37.972Z,48.00
2022-11-03T18:57:13.021Z,48.11
2022-11-03T18:59:46.782Z,48.28
2022-11-03T19:02:21.993Z,48.35
2022-11-03T19:04:55.081Z,48.44
2022-11-03T19:07:31.680Z,48.62
2022-11-03T19:10:08.194Z,48.50
2022-11-03T19:12:43.767Z,48.54
2022-11-03T19:15:17.876Z,48.81
2022-11-03T19:17:52.554Z,48.82
2022-11-03T19:20:25.676Z,48.76
2022-11-03T19:22:58.947Z,48.92
2022-11-03T19:25:32.908Z,48.89
2022-11-03T19:28:05.567Z,48.88
2022-11-03T19:30:38.933Z,49.03
2022-11-03T19:33:20.439Z,49.10
2022-11-03T19:35:53.117Z,49.22
2022-11-03T19:38:25.904Z,49.17
2022-11-03T19:41:15.482Z,49.25
2022-11-03T19:43:48.429Z,49.21
2022-11-03T19:46:22.595Z,49.25
2022-11-03T19:48:55.444Z,49.30
2022-11-03T19:51:29.806Z,49.38
2022-11-03T19:54:02.213Z,49.42
2022-11-03T19:56:34.581Z,49.55
2022-11-03T19:59:11.277Z,49.49
2022-11-03T20:01:44.036Z,49.52
2022-11-03T20:04:16.484Z,49.63
2022-11-03T20:06:48.770Z,49.58
2022-11-03T20:09:22.966Z,49.64
2022-11-03T20:11:57.458Z,49.72
2022-11-03T20:14:30.145Z,49.74
2022-11-03T20:17:11.623Z,49.87
2022-11-03T20:19:44.477Z,49.89
2022-11-03T20:22:21.847Z,49.95
2022-11-03T20:24:57.158Z,49.95
2022-11-03T20:27:29.591Z,49.96
2022-11-03T20:30:03.033Z,49.95
2022-11-03T20:32:35.605Z,50.28
2022-11-03T20:35:10.809Z,50.30
2022-11-03T20:37:44.930Z,50.30
2022-11-03T20:40:20.698Z,50.40
2022-11-03T20:42:52.430Z,50.38
2022-11-03T20:45:26.271Z,50.57
2022-11-03T20:47:59.059Z,50.56
2022-11-03T20:50:33.655Z,50.60
2022-11-03T20:53:06.858Z,50.64
2022-11-03T20:55:39.726Z,50.67
2022-11-03T20:58:15.068Z,50.72
2022-11-03T21:00:50.019Z,50.71
2022-11-03T21:06:20.061Z,50.82
2022-11-03T21:08:53.158Z,50.86
2022-11-03T21:11:31.181Z,50.88
2022-11-03T21:14:09.162Z,50.97
2022-11-03T21:16:58.931Z,51.03
2022-11-03T21:19:50.718Z,51.10
2022-11-03T21:22:51.243Z,51.20
2022-11-03T21:25:20.049Z,51.20
2022-11-03T21:28:04.485Z,51.32
2022-11-03T21:30:37.139Z,51.30
2022-11-03T21:33:09.522Z,51.42
2022-11-03T21:35:44.634Z,51.38
2022-11-03T21:38:18.351Z,51.50
2022-11-03T21:41:12.414Z,51.38
2022-11-03T21:44:03.090Z,51.41
2022-11-03T21:46:35.389Z,51.62
2022-11-03T21:49:25.346Z,51.55
2022-11-03T21:51:58.283Z,51.65
2022-11-03T21:54:30.642Z,51.78
2022-11-03T21:57:03.963Z,51.90
2022-11-03T21:59:37.280Z,51.86
2022-11-03T22:02:13.264Z,51.86
2022-11-03T22:04:45.694Z,51.99
2022-11-03T22:07:18.090Z,51.92
2022-11-03T22:09:50.931Z,51.84
2022-11-03T22:12:24.426Z,51.93
2022-11-03T22:15:14.554Z,52.04
2022-11-03T22:17:48.116Z,52.11
2022-11-03T22:20:40.318Z,52.13
2022-11-03T22:23:32.685Z,52.26
2022-11-03T22:26:23.966Z,52.24
2022-11-03T22:29:12.304Z,52.32
2022-11-03T22:31:45.485Z,52.31
2022-11-03T22:34:34.455Z,52.31
2022-11-03T22:37:07.190Z,52.40
2022-11-03T22:39:57.111Z,52.49
2022-11-03T22:42:47.168Z,52.50
2022-11-03T22:45:37.645Z,52.54
2022-11-03T22:48:12.783Z,52.66
2022-11-03T22:50:45.348Z,52.64
2022-11-03T22:53:35.351Z,52.60
2022-11-03T22:56:08.565Z,52.85
2022-11-03T22:58:40.940Z,52.72
2022-11-03T23:01:15.243Z,52.84
2022-11-03T23:03:49.534Z,52.75
2022-11-03T23:06:23.993Z,52.88
2022-11-03T23:08:57.674Z,52.88
2022-11-03T23:11:34.050Z,52.98
2022-11-03T23:14:09.448Z,52.98
2022-11-03T23:16:43.619Z,53.02
2022-11-03T23:19:35.378Z,52.97
2022-11-03T23:22:08.568Z,53.07
2022-11-03T23:25:02.160Z,53.04
2022-11-03T23:27:34.520Z,52.96
2022-11-03T23:30:08.409Z,53.01
2022-11-03T23:32:40.973Z,53.09
2022-11-03T23:35:14.722Z,52.93
2022-11-03T23:37:47.063Z,53.12
2022-11-03T23:40:21.432Z,52.99
2022-11-03T23:42:54.807Z,53.19
2022-11-03T23:45:44.439Z,53.18
2022-11-03T23:48:49.243Z,53.21
2022-11-03T23:51:23.746Z,53.27
2022-11-03T23:53:57.161Z,53.23
2022-11-03T23:56:48.944Z,53.15
2022-11-03T23:59:24.036Z,53.32
